Time;durP1;ratioP1;P1;durP2;ratioP2;P2;SDS_P1;SDS_P2;PMS_P1;PMS_P2;Temp;Humidity;BMP_temperature;BMP_pressure;BME280_temperature;BME280_humidity;BME280_pressure;Samples;Min_cycle;Max_cycle;Signal;HPM_P1;HPM_P2
2022/07/03 00:00:33;;;;;;;6.33;3.57;;;19.40;99.90;;;;;;5091486;28;20451;-48
2022/07/03 00:03:00;;;;;;;3.33;3.03;;;19.40;99.90;;;;;;5091374;28;20507;-47
2022/07/03 00:05:27;;;;;;;6.63;3.30;;;19.40;99.90;;;;;;5091564;28;20466;-50
2022/07/03 00:07:54;;;;;;;4.37;3.00;;;19.30;99.90;;;;;;5090795;28;20479;-48
2022/07/03 00:10:23;;;;;;;4.23;3.40;;;19.40;99.90;;;;;;5090852;28;21075;-52
2022/07/03 00:12:50;;;;;;;4.23;3.30;;;19.40;99.90;;;;;;5090721;28;20467;-49
2022/07/03 00:15:17;;;;;;;4.10;3.40;;;19.20;99.90;;;;;;5091008;28;20471;-48
2022/07/03 00:17:44;;;;;;;5.63;3.10;;;19.20;99.90;;;;;;5091015;28;20477;-48
2022/07/03 00:20:11;;;;;;;4.30;3.63;;;19.20;99.90;;;;;;5090791;28;20491;-48
2022/07/03 00:22:42;;;;;;;4.87;4.33;;;19.20;99.90;;;;;;5091032;28;20576;-50
2022/07/03 00:25:12;;;;;;;5.60;4.33;;;19.20;99.90;;;;;;5091084;28;20466;-47
2022/07/03 00:27:41;;;;;;;3.90;3.50;;;19.20;99.90;;;;;;5091149;28;20526;-50
2022/07/03 00:30:08;;;;;;;3.27;2.97;;;19.20;99.90;;;;;;5090536;28;20498;-49
2022/07/03 00:32:40;;;;;;;3.40;3.10;;;19.20;99.90;;;;;;5090708;28;20942;-48
2022/07/03 00:35:08;;;;;;;8.07;2.43;;;19.20;99.90;;;;;;5090931;28;20435;-50
2022/07/03 00:37:35;;;;;;;2.73;2.03;;;19.20;99.90;;;;;;5090862;28;20444;-50
2022/07/03 00:40:02;;;;;;;3.37;3.07;;;19.00;99.90;;;;;;5090307;28;20556;-48
2022/07/03 00:42:29;;;;;;;4.33;3.93;;;19.00;99.90;;;;;;5090596;28;20562;-47
2022/07/03 00:45:00;;;;;;;4.07;3.67;;;19.00;99.90;;;;;;5090472;28;20436;-48
2022/07/03 00:47:28;;;;;;;3.57;3.23;;;19.00;99.90;;;;;;5090527;28;20530;-47
2022/07/03 00:49:57;;;;;;;5.33;4.83;;;19.00;99.90;;;;;;5090477;28;20520;-47
2022/07/03 00:52:25;;;;;;;3.80;3.50;;;19.00;99.90;;;;;;5090717;28;20455;-48
2022/07/03 00:54:54;;;;;;;3.30;2.90;;;18.90;99.90;;;;;;5090405;28;20467;-47
2022/07/03 00:57:22;;;;;;;3.60;3.30;;;18.80;99.90;;;;;;5090311;28;20522;-49
2022/07/03 00:59:50;;;;;;;3.50;3.20;;;18.80;99.90;;;;;;5089974;28;20498;-49
2022/07/03 01:02:31;;;;;;;2.80;2.50;;;18.80;99.90;;;;;;5090215;28;21041;-48
2022/07/03 01:05:17;;;;;;;2.97;2.70;;;18.90;99.90;;;;;;5090152;28;20527;-49
2022/07/03 01:07:52;;;;;;;3.60;2.90;;;18.90;99.90;;;;;;5090167;28;20478;-47
2022/07/03 01:10:30;;;;;;;3.00;2.43;;;18.90;99.90;;;;;;5090015;28;20469;-51
2022/07/03 01:13:07;;;;;;;4.97;3.27;;;18.90;99.90;;;;;;5089754;28;20539;-49
2022/07/03 01:15:51;;;;;;;4.13;3.17;;;18.90;99.90;;;;;;5090288;28;20435;-50
2022/07/03 01:18:45;;;;;;;4.63;3.53;;;19.00;99.90;;;;;;5089861;28;20887;-47
2022/07/03 01:21:34;;;;;;;5.40;3.83;;;19.00;99.90;;;;;;5089712;28;20470;-49
2022/07/03 01:24:29;;;;;;;5.47;4.20;;;19.00;99.90;;;;;;5090011;28;20534;-49
2022/07/03 01:27:05;;;;;;;3.33;2.97;;;19.00;99.90;;;;;;5089965;28;20866;-47
2022/07/03 01:29:39;;;;;;;3.13;2.83;;;18.70;99.90;;;;;;5089599;28;20494;-47
2022/07/03 01:32:08;;;;;;;4.70;3.27;;;18.80;99.90;;;;;;5089862;28;20439;-48
2022/07/03 01:34:38;;;;;;;4.20;3.27;;;18.80;99.90;;;;;;5089695;28;20778;-47
2022/07/03 01:37:07;;;;;;;4.00;3.30;;;18.80;99.90;;;;;;5089780;28;20474;-50
2022/07/03 01:39:36;;;;;;;4.50;3.17;;;18.80;99.90;;;;;;5089592;28;20471;-49
2022/07/03 01:42:09;;;;;;;3.53;3.20;;;18.80;99.90;;;;;;5089831;28;20479;-50
2022/07/03 01:44:39;;;;;;;3.50;3.20;;;18.60;99.90;;;;;;5089755;28;20989;-48
2022/07/03 01:47:07;;;;;;;4.07;3.77;;;18.50;99.90;;;;;;5090188;28;20801;-47
2022/07/03 01:49:35;;;;;;;3.53;3.13;;;18.50;99.90;;;;;;5089371;28;20886;-51
2022/07/03 01:52:03;;;;;;;3.60;3.30;;;18.50;99.90;;;;;;5089777;28;20482;-49
2022/07/03 01:54:32;;;;;;;4.37;3.37;;;18.40;99.90;;;;;;5089795;28;20476;-50
2022/07/03 01:57:01;;;;;;;3.60;3.30;;;18.40;99.90;;;;;;5089737;28;20526;-48
2022/07/03 01:59:29;;;;;;;3.87;3.47;;;18.50;99.90;;;;;;5089135;28;20487;-52
2022/07/03 02:02:10;;;;;;;3.50;3.20;;;18.60;99.90;;;;;;5089840;28;20540;-50
2022/07/03 02:04:51;;;;;;;4.60;3.17;;;18.60;99.90;;;;;;5089568;28;20439;-47
2022/07/03 02:07:25;;;;;;;4.37;3.60;;;18.70;99.90;;;;;;5089684;28;20525;-49
2022/07/03 02:10:02;;;;;;;3.53;3.23;;;18.70;99.90;;;;;;5089385;28;20495;-47
2022/07/03 02:12:40;;;;;;;3.83;3.17;;;18.60;99.90;;;;;;5089306;28;20443;-48
2022/07/03 02:15:10;;;;;;;6.00;3.23;;;18.60;99.90;;;;;;5089725;28;20439;-47
2022/07/03 02:17:39;;;;;;;3.10;2.80;;;18.60;99.90;;;;;;5089626;28;20543;-52
2022/07/03 02:20:08;;;;;;;3.70;3.10;;;18.70;99.90;;;;;;5089106;28;20611;-47
2022/07/03 02:22:36;;;;;;;4.03;3.50;;;18.70;99.90;;;;;;5089456;28;20578;-47
2022/07/03 02:25:06;;;;;;;4.80;3.57;;;18.80;99.90;;;;;;5089581;28;20471;-47
2022/07/03 02:27:41;;;;;;;3.20;2.93;;;18.80;99.90;;;;;;5089473;28;20432;-47
2022/07/03 02:30:11;;;;;;;6.00;2.93;;;18.80;99.90;;;;;;5090074;28;20538;-47
2022/07/03 02:32:43;;;;;;;3.37;3.07;;;18.80;99.90;;;;;;5093054;28;20475;-48
2022/07/03 02:35:12;;;;;;;3.37;3.07;;;18.80;99.90;;;;;;5093279;28;20461;-51
2022/07/03 02:37:46;;;;;;;3.40;3.10;;;18.80;99.90;;;;;;5092979;28;20505;-48
2022/07/03 02:40:22;;;;;;;5.50;4.27;;;18.80;99.90;;;;;;5092660;28;20982;-51
2022/07/03 02:43:02;;;;;;;5.63;3.40;;;18.80;99.90;;;;;;5092840;28;20545;-52
2022/07/03 02:45:41;;;;;;;3.20;2.90;;;18.70;99.90;;;;;;5093145;28;20822;-50
2022/07/03 02:48:17;;;;;;;3.27;3.00;;;18.70;99.90;;;;;;5092784;28;20534;-49
2022/07/03 02:50:49;;;;;;;5.97;3.30;;;18.70;99.90;;;;;;5092624;28;20459;-47
2022/07/03 02:53:26;;;;;;;4.13;2.90;;;18.70;99.90;;;;;;5092689;28;20498;-49
2022/07/03 02:56:04;;;;;;;6.10;3.13;;;18.70;99.90;;;;;;5092962;28;20813;-47
2022/07/03 02:58:46;;;;;;;3.47;2.80;;;18.70;99.90;;;;;;5092684;28;20876;-48
2022/07/03 03:01:25;;;;;;;3.47;2.90;;;18.60;99.90;;;;;;5092707;28;20808;-48
2022/07/03 03:04:02;;;;;;;4.67;3.87;;;18.60;99.90;;;;;;5092131;28;20841;-52
2022/07/03 03:06:33;;;;;;;3.57;3.27;;;18.60;99.90;;;;;;5092694;28;20474;-51
2022/07/03 03:09:03;;;;;;;5.53;3.43;;;18.50;99.90;;;;;;5092052;28;21011;-49
2022/07/03 03:11:38;;;;;;;4.30;3.50;;;18.50;99.90;;;;;;5092376;28;20439;-49
2022/07/03 03:14:09;;;;;;;3.77;3.47;;;18.60;99.90;;;;;;5092666;28;20886;-51
2022/07/03 03:16:46;;;;;;;3.67;3.37;;;18.60;99.90;;;;;;5092191;28;20471;-49
2022/07/03 03:19:14;;;;;;;6.20;4.07;;;18.40;99.90;;;;;;5091837;28;20459;-50
2022/07/03 03:21:52;;;;;;;3.40;3.10;;;18.20;99.90;;;;;;5091976;28;20526;-49
2022/07/03 03:24:19;;;;;;;4.60;3.30;;;18.10;99.90;;;;;;5092095;28;20787;-49
2022/07/03 03:26:46;;;;;;;4.60;4.00;;;18.10;99.90;;;;;;5092018;28;21014;-49
2022/07/03 03:29:13;;;;;;;3.10;2.80;;;18.20;99.90;;;;;;5092066;28;20517;-50
2022/07/03 03:31:42;;;;;;;4.00;3.60;;;18.20;99.90;;;;;;5091985;28;20860;-49
2022/07/03 03:34:10;;;;;;;4.40;3.67;;;18.30;99.90;;;;;;5091993;28;20466;-49
2022/07/03 03:36:37;;;;;;;3.43;3.10;;;18.40;99.90;;;;;;5091850;28;20792;-50
2022/07/03 03:39:04;;;;;;;4.47;3.20;;;18.40;99.90;;;;;;5091536;28;20435;-49
2022/07/03 03:41:31;;;;;;;5.00;3.40;;;18.40;99.90;;;;;;5149016;22;20530;-49
2022/07/03 03:43:58;;;;;;;3.40;3.10;;;18.40;99.90;;;;;;5091419;28;20571;-49
2022/07/03 03:46:25;;;;;;;4.00;3.07;;;18.50;99.90;;;;;;5091655;28;21188;-48
2022/07/03 03:48:53;;;;;;;3.33;3.03;;;18.50;99.90;;;;;;5091534;28;20497;-47
2022/07/03 03:51:20;;;;;;;3.57;3.13;;;18.50;99.90;;;;;;5091590;28;20906;-48
2022/07/03 03:53:47;;;;;;;3.90;3.50;;;18.50;99.90;;;;;;5091598;28;20432;-48
2022/07/03 03:56:14;;;;;;;6.90;3.63;;;18.50;99.90;;;;;;5091404;28;20530;-49
2022/07/03 03:58:42;;;;;;;6.33;5.57;;;18.40;99.90;;;;;;5091567;28;20479;-47
2022/07/03 04:01:11;;;;;;;9.47;8.60;;;18.20;99.90;;;;;;5091534;28;20964;-48
2022/07/03 04:03:39;;;;;;;8.90;6.90;;;18.10;99.90;;;;;;5091183;28;20471;-49
2022/07/03 04:06:08;;;;;;;7.00;6.10;;;18.20;99.90;;;;;;5091407;28;20486;-50
2022/07/03 04:08:35;;;;;;;5.40;4.63;;;18.20;99.90;;;;;;5091315;28;20500;-48
2022/07/03 04:11:02;;;;;;;6.23;4.30;;;18.20;99.90;;;;;;5090669;28;21017;-48
2022/07/03 04:13:29;;;;;;;7.00;4.40;;;18.30;99.90;;;;;;5091404;28;20450;-47
2022/07/03 04:15:56;;;;;;;4.93;3.50;;;18.40;99.90;;;;;;5091097;28;20525;-49
2022/07/03 04:18:24;;;;;;;5.00;4.40;;;18.40;99.90;;;;;;5091214;28;20475;-48
2022/07/03 04:20:50;;;;;;;4.70;4.07;;;18.40;99.90;;;;;;5090574;28;20559;-48
2022/07/03 04:23:19;;;;;;;4.67;4.27;;;18.40;99.90;;;;;;5091304;28;20562;-48
2022/07/03 04:25:46;;;;;;;4.03;3.57;;;18.30;99.90;;;;;;5091071;28;20505;-48
2022/07/03 04:28:13;;;;;;;4.40;3.67;;;18.30;99.90;;;;;;5090857;28;20444;-50
2022/07/03 04:30:40;;;;;;;4.50;4.10;;;18.20;99.90;;;;;;5090751;28;20487;-48
2022/07/03 04:33:07;;;;;;;4.33;3.77;;;18.10;99.90;;;;;;5090985;28;20439;-49
2022/07/03 04:35:34;;;;;;;3.97;3.60;;;18.10;99.90;;;;;;5091007;28;20881;-49
2022/07/03 04:38:01;;;;;;;5.00;4.10;;;18.30;99.90;;;;;;5090787;28;20525;-52
2022/07/03 04:40:29;;;;;;;4.20;3.90;;;18.20;99.90;;;;;;5090451;28;20690;-48
2022/07/03 04:42:56;;;;;;;3.37;3.07;;;18.20;99.90;;;;;;5090949;28;20471;-50
2022/07/03 04:45:23;;;;;;;4.40;3.43;;;18.20;99.90;;;;;;5090819;28;20446;-48
2022/07/03 04:47:50;;;;;;;6.33;3.63;;;18.20;99.90;;;;;;5090505;28;20975;-49
2022/07/03 04:50:17;;;;;;;4.17;3.77;;;18.20;99.90;;;;;;5090339;28;20459;-49
2022/07/03 04:52:44;;;;;;;4.30;4.00;;;18.20;99.90;;;;;;5090558;28;20446;-48
2022/07/03 04:55:12;;;;;;;4.40;4.00;;;18.20;99.90;;;;;;5089598;28;20792;-49
2022/07/03 04:57:40;;;;;;;4.37;3.90;;;18.30;99.90;;;;;;5090647;28;20443;-47
2022/07/03 05:00:08;;;;;;;5.07;3.80;;;18.30;99.90;;;;;;5090158;28;20513;-51
2022/07/03 05:02:35;;;;;;;5.27;4.30;;;18.30;99.90;;;;;;5090362;28;20451;-48
2022/07/03 05:05:03;;;;;;;7.23;3.70;;;18.40;99.90;;;;;;5090210;28;20468;-47
2022/07/03 05:07:30;;;;;;;5.00;4.13;;;18.40;99.90;;;;;;5090312;28;20851;-50
2022/07/03 05:09:58;;;;;;;4.50;4.10;;;18.50;99.90;;;;;;5089956;28;20571;-49
2022/07/03 05:12:24;;;;;;;4.97;4.50;;;18.40;99.90;;;;;;5090132;28;20447;-48
2022/07/03 05:14:53;;;;;;;4.50;4.20;;;18.40;99.90;;;;;;5090003;28;20861;-48
2022/07/03 05:17:20;;;;;;;6.40;4.70;;;18.30;99.90;;;;;;5090097;28;20721;-48
2022/07/03 05:19:47;;;;;;;4.57;4.13;;;18.20;99.90;;;;;;5089964;28;20499;-49
2022/07/03 05:22:17;;;;;;;5.20;4.10;;;17.90;99.90;;;;;;5089893;28;20481;-48
2022/07/03 05:24:44;;;;;;;5.20;4.80;;;17.90;99.90;;;;;;5090080;28;20476;-48
2022/07/03 05:27:10;;;;;;;4.57;4.17;;;17.90;99.90;;;;;;5089921;28;20536;-49
2022/07/03 05:29:37;;;;;;;5.63;4.80;;;18.00;99.90;;;;;;5089630;28;20502;-48
2022/07/03 05:32:07;;;;;;;4.67;4.17;;;18.00;99.90;;;;;;5090294;28;20505;-48
2022/07/03 05:34:33;;;;;;;3.70;3.40;;;18.00;99.90;;;;;;5089908;28;20986;-47
2022/07/03 05:37:00;;;;;;;4.53;4.13;;;18.10;99.90;;;;;;5089937;28;20852;-48
2022/07/03 05:39:32;;;;;;;5.00;4.50;;;18.20;99.90;;;;;;5089848;28;20468;-49
2022/07/03 05:41:59;;;;;;;5.70;4.23;;;18.30;99.90;;;;;;5089959;28;20446;-50
2022/07/03 05:44:26;;;;;;;5.57;5.07;;;18.40;99.90;;;;;;5089820;28;20835;-48
2022/07/03 05:46:53;;;;;;;5.40;4.90;;;18.50;99.90;;;;;;5089784;28;20523;-51
2022/07/03 05:49:21;;;;;;;6.60;5.13;;;18.40;99.90;;;;;;5089547;28;21121;-47
2022/07/03 05:51:48;;;;;;;5.30;4.80;;;18.40;99.90;;;;;;5089760;28;20542;-50
2022/07/03 05:54:15;;;;;;;6.93;5.83;;;18.40;99.90;;;;;;5090064;28;20463;-48
2022/07/03 05:56:42;;;;;;;5.10;4.50;;;18.50;99.90;;;;;;5089695;28;20501;-49
2022/07/03 05:59:09;;;;;;;4.37;3.97;;;18.50;99.90;;;;;;5089836;28;20971;-51
2022/07/03 06:01:36;;;;;;;6.10;5.13;;;18.60;99.90;;;;;;5089525;28;20518;-47
2022/07/03 06:04:03;;;;;;;5.70;4.97;;;18.70;99.90;;;;;;5089938;28;20601;-50
2022/07/03 06:06:31;;;;;;;5.23;4.30;;;18.70;99.90;;;;;;5092859;28;20446;-48
2022/07/03 06:08:58;;;;;;;4.87;4.47;;;18.90;99.90;;;;;;5093464;28;20952;-48
2022/07/03 06:11:25;;;;;;;5.13;4.63;;;19.40;99.90;;;;;;5093286;28;20520;-48
2022/07/03 06:13:52;;;;;;;5.03;4.37;;;20.10;99.90;;;;;;5093648;28;20863;-50
2022/07/03 06:16:19;;;;;;;4.73;3.43;;;20.80;99.90;;;;;;5093540;28;20467;-48
2022/07/03 06:18:46;;;;;;;4.97;3.33;;;21.60;99.90;;;;;;5093505;28;20449;-51
2022/07/03 06:21:13;;;;;;;4.23;3.83;;;22.20;99.90;;;;;;5093147;28;20516;-48
2022/07/03 06:23:41;;;;;;;3.73;3.37;;;22.60;99.90;;;;;;5093178;28;20820;-50
2022/07/03 06:26:08;;;;;;;4.50;4.20;;;22.70;99.90;;;;;;5093275;28;20874;-48
2022/07/03 06:28:35;;;;;;;3.33;3.03;;;22.70;99.90;;;;;;5093155;28;21029;-48
2022/07/03 06:31:02;;;;;;;3.67;3.37;;;22.60;99.90;;;;;;5093087;28;20539;-48
2022/07/03 06:33:29;;;;;;;3.90;3.20;;;22.50;99.90;;;;;;5093080;28;21003;-50
2022/07/03 06:35:56;;;;;;;3.30;3.00;;;22.40;99.90;;;;;;5093268;28;20443;-48
2022/07/03 06:38:23;;;;;;;3.93;3.43;;;22.40;99.90;;;;;;5093022;28;20482;-48
2022/07/03 06:40:51;;;;;;;4.50;3.43;;;22.30;99.90;;;;;;5092575;28;20524;-48
2022/07/03 06:43:18;;;;;;;3.43;3.13;;;22.30;99.90;;;;;;5093047;28;20511;-48
2022/07/03 06:45:45;;;;;;;4.53;3.47;;;22.30;99.90;;;;;;5092972;28;20936;-52
2022/07/03 06:48:12;;;;;;;4.00;3.60;;;22.20;99.90;;;;;;5092928;28;21169;-48
2022/07/03 06:50:39;;;;;;;4.43;4.03;;;22.10;99.90;;;;;;5092635;28;20495;-48
2022/07/03 06:53:06;;;;;;;4.07;3.70;;;22.00;99.90;;;;;;5093401;28;20452;-48
2022/07/03 06:55:34;;;;;;;3.27;3.07;;;22.00;99.90;;;;;;5092731;28;20470;-49
2022/07/03 06:58:02;;;;;;;3.43;2.97;;;22.00;99.90;;;;;;5092761;28;20516;-52
2022/07/03 07:00:29;;;;;;;3.67;3.37;;;22.00;99.90;;;;;;5092339;28;20975;-49
2022/07/03 07:02:56;;;;;;;3.93;3.63;;;21.90;99.90;;;;;;5092451;28;20457;-48
2022/07/03 07:05:23;;;;;;;4.10;3.70;;;21.90;99.90;;;;;;5092255;28;21072;-50
2022/07/03 07:07:50;;;;;;;4.00;3.70;;;21.80;99.90;;;;;;5092465;28;20443;-48
2022/07/03 07:10:17;;;;;;;4.30;3.10;;;21.80;99.90;;;;;;5092350;28;20463;-50
2022/07/03 07:12:44;;;;;;;3.67;3.30;;;21.70;99.90;;;;;;5091980;28;20471;-48
2022/07/03 07:15:12;;;;;;;3.67;3.37;;;21.60;99.90;;;;;;5092228;28;20475;-47
2022/07/03 07:17:39;;;;;;;3.70;3.40;;;21.60;99.90;;;;;;5091549;28;20447;-48
2022/07/03 07:20:07;;;;;;;3.83;3.53;;;21.70;99.90;;;;;;5092353;28;20550;-51
2022/07/03 07:22:34;;;;;;;3.80;3.50;;;21.90;99.90;;;;;;5092593;28;20530;-50
2022/07/03 07:25:01;;;;;;;4.60;4.20;;;22.10;99.90;;;;;;5092276;28;20489;-48
2022/07/03 07:27:28;;;;;;;3.60;3.30;;;22.40;99.90;;;;;;5092017;28;20944;-50
2022/07/03 07:29:55;;;;;;;4.23;3.83;;;22.60;99.90;;;;;;5091849;28;20845;-48
2022/07/03 07:32:24;;;;;;;4.70;4.20;;;22.70;99.90;;;;;;5091980;28;20470;-49
2022/07/03 07:34:50;;;;;;;4.00;3.70;;;22.90;99.90;;;;;;5092260;28;20989;-51
2022/07/03 07:37:17;;;;;;;4.37;3.97;;;23.10;99.90;;;;;;5092241;28;20493;-49
2022/07/03 07:39:44;;;;;;;3.43;3.23;;;23.30;99.90;;;;;;5091511;28;20443;-50
2022/07/03 07:42:11;;;;;;;3.53;3.10;;;23.40;99.90;;;;;;5090285;28;20443;-50
2022/07/03 07:44:38;;;;;;;4.03;3.73;;;23.60;99.90;;;;;;5091449;28;20553;-48
2022/07/03 07:47:05;;;;;;;3.87;3.47;;;23.50;99.90;;;;;;5091524;28;20476;-51
2022/07/03 07:49:33;;;;;;;4.47;4.07;;;23.50;99.90;;;;;;5091368;28;20963;-48
2022/07/03 07:52:00;;;;;;;3.83;3.60;;;23.60;99.90;;;;;;5091539;28;21024;-48
2022/07/03 07:54:27;;;;;;;13.27;11.90;;;23.40;99.90;;;;;;5088928;28;20960;-48
2022/07/03 07:56:54;;;;;;;4.80;4.40;;;23.40;99.90;;;;;;5091261;28;20518;-52
2022/07/03 07:59:21;;;;;;;6.47;3.90;;;23.40;99.90;;;;;;5091293;28;20439;-48
2022/07/03 08:07:18;;;;;;;4.67;3.90;;;23.90;99.90;;;;;;5091409;28;20427;-49
2022/07/03 08:09:45;;;;;;;4.27;3.97;;;24.10;99.90;;;;;;5090990;28;20467;-50
2022/07/03 08:12:12;;;;;;;4.00;3.60;;;24.20;99.90;;;;;;5090821;28;20435;-49
2022/07/03 08:14:39;;;;;;;4.90;3.70;;;24.20;99.90;;;;;;5091323;28;20436;-48
2022/07/03 08:17:06;;;;;;;3.80;3.50;;;24.00;99.90;;;;;;5091047;28;20527;-49
2022/07/03 08:19:34;;;;;;;3.67;3.37;;;24.10;99.90;;;;;;5090759;28;20440;-48
2022/07/03 08:22:02;;;;;;;5.20;3.63;;;24.10;99.90;;;;;;5090954;28;20471;-49
2022/07/03 08:24:29;;;;;;;4.77;4.20;;;24.20;99.90;;;;;;5090880;28;20471;-48
2022/07/03 08:26:56;;;;;;;5.00;4.17;;;24.30;99.90;;;;;;5091199;28;20501;-52
2022/07/03 08:29:23;;;;;;;4.07;3.77;;;24.40;99.90;;;;;;5090435;28;20443;-50
2022/07/03 08:31:50;;;;;;;3.80;3.50;;;24.60;99.90;;;;;;5090861;28;20494;-49
2022/07/03 08:34:16;;;;;;;4.63;3.60;;;24.20;99.90;;;;;;5090647;28;20980;-49
2022/07/03 08:36:45;;;;;;;4.40;4.00;;;24.40;99.90;;;;;;5090861;28;20444;-50
2022/07/03 08:39:12;;;;;;;4.00;3.70;;;24.50;99.90;;;;;;5090335;28;20947;-48
2022/07/03 08:41:41;;;;;;;3.63;3.33;;;24.50;99.90;;;;;;5090454;28;20574;-48
2022/07/03 08:44:10;;;;;;;4.30;3.90;;;24.80;99.90;;;;;;5090736;28;20556;-51
2022/07/03 08:46:39;;;;;;;3.93;3.60;;;25.00;99.90;;;;;;5090801;28;20518;-49
2022/07/03 08:49:08;;;;;;;4.07;3.70;;;25.10;99.90;;;;;;5090327;28;20889;-50
2022/07/03 08:51:36;;;;;;;3.63;3.33;;;25.20;99.90;;;;;;5090604;28;20494;-50
2022/07/03 08:54:06;;;;;;;4.23;3.93;;;25.30;99.90;;;;;;5090696;28;20443;-49
2022/07/03 08:56:33;;;;;;;7.60;3.80;;;25.30;99.90;;;;;;5090922;28;20470;-48
2022/07/03 08:59:03;;;;;;;3.90;3.60;;;25.30;99.90;;;;;;5090131;28;20447;-50
2022/07/03 09:01:31;;;;;;;4.63;4.03;;;25.30;99.90;;;;;;5090344;28;20463;-49
2022/07/03 09:03:59;;;;;;;3.97;3.67;;;25.10;99.90;;;;;;5090055;28;20474;-48
2022/07/03 09:06:33;;;;;;;4.10;3.43;;;25.20;99.90;;;;;;5090425;28;20466;-50
2022/07/03 09:09:02;;;;;;;6.20;3.67;;;25.20;99.90;;;;;;5089963;28;20447;-51
2022/07/03 09:11:31;;;;;;;3.87;3.57;;;25.00;99.90;;;;;;5089789;28;20463;-50
2022/07/03 09:13:59;;;;;;;4.27;3.70;;;25.10;99.90;;;;;;5090316;28;20512;-51
2022/07/03 09:16:25;;;;;;;4.23;3.83;;;25.10;99.90;;;;;;5090172;28;20439;-49
2022/07/03 09:18:52;;;;;;;4.47;4.07;;;25.20;99.90;;;;;;5089908;28;20445;-48
2022/07/03 09:21:20;;;;;;;4.47;3.30;;;25.40;99.90;;;;;;5089685;28;20459;-49
2022/07/03 09:23:47;;;;;;;4.20;3.90;;;25.40;99.90;;;;;;5090123;28;21019;-49
2022/07/03 09:26:16;;;;;;;4.10;3.80;;;25.40;99.90;;;;;;5090115;28;20531;-48
2022/07/03 09:28:46;;;;;;;4.10;3.60;;;25.60;99.90;;;;;;5089997;28;20428;-49
2022/07/03 09:31:16;;;;;;;3.60;3.30;;;25.50;99.90;;;;;;5090089;28;20474;-48
2022/07/03 09:33:54;;;;;;;3.50;3.20;;;25.40;99.90;;;;;;5090235;28;20463;-49
2022/07/03 09:36:23;;;;;;;3.70;3.40;;;25.40;99.90;;;;;;5089854;28;20447;-49
2022/07/03 09:38:51;;;;;;;3.07;2.87;;;25.50;99.90;;;;;;5090187;28;20439;-49
2022/07/03 09:41:17;;;;;;;3.30;3.00;;;25.70;99.90;;;;;;5090483;28;20463;-48
2022/07/03 09:43:46;;;;;;;2.60;2.40;;;25.90;99.90;;;;;;5089961;28;20991;-49
2022/07/03 09:46:13;;;;;;;4.63;3.13;;;26.00;99.90;;;;;;5089653;28;21065;-49
2022/07/03 09:48:41;;;;;;;2.60;2.40;;;26.00;99.90;;;;;;5089707;28;20475;-47
2022/07/03 09:51:20;;;;;;;2.87;2.40;;;26.10;99.90;;;;;;5089491;28;21028;-48
2022/07/03 09:53:55;;;;;;;2.10;1.80;;;26.00;99.90;;;;;;5089850;28;20467;-49
2022/07/03 09:56:24;;;;;;;2.40;2.00;;;26.00;99.90;;;;;;5089628;28;21022;-48
2022/07/03 09:59:07;;;;;;;2.27;1.80;;;26.10;99.90;;;;;;5089525;28;20536;-49
2022/07/03 10:01:34;;;;;;;2.50;2.30;;;26.10;99.90;;;;;;5089550;28;20466;-51
2022/07/03 10:04:12;;;;;;;3.00;2.50;;;26.10;99.90;;;;;;5089949;28;20488;-49
2022/07/03 10:06:57;;;;;;;2.63;2.20;;;26.20;99.90;;;;;;5089604;28;20443;-48
2022/07/03 10:09:25;;;;;;;2.60;2.23;;;26.20;99.90;;;;;;5089363;28;20527;-50
2022/07/03 10:11:54;;;;;;;2.20;1.90;;;26.30;99.90;;;;;;5089318;28;20492;-51
2022/07/03 10:14:24;;;;;;;2.63;1.80;;;26.30;99.90;;;;;;5089453;28;20473;-48
2022/07/03 10:16:51;;;;;;;1.97;1.43;;;26.30;99.90;;;;;;5089882;28;20435;-48
2022/07/03 10:19:20;;;;;;;1.70;1.60;;;26.40;99.90;;;;;;5089149;28;20540;-49
2022/07/03 10:21:52;;;;;;;3.40;2.20;;;26.50;99.90;;;;;;5089226;28;20538;-49
2022/07/03 10:24:23;;;;;;;3.73;2.77;;;26.60;99.90;;;;;;5089257;28;20439;-49
2022/07/03 10:26:50;;;;;;;2.27;1.90;;;26.60;99.90;;;;;;5089648;28;20782;-49
2022/07/03 10:29:17;;;;;;;2.47;2.07;;;26.70;99.90;;;;;;5089482;28;20873;-52
2022/07/03 10:31:47;;;;;;;2.07;1.87;;;26.60;99.90;;;;;;5089418;28;20995;-48
2022/07/03 10:34:18;;;;;;;2.20;1.53;;;26.70;99.90;;;;;;5089674;28;20543;-49
2022/07/03 10:36:47;;;;;;;2.53;2.33;;;26.80;99.90;;;;;;5089239;28;20446;-50
2022/07/03 10:39:27;;;;;;;6.37;2.67;;;26.80;99.90;;;;;;5089034;28;20471;-50
2022/07/03 10:45:07;;;;;;;2.07;1.87;;;26.80;99.90;;;;;;5089610;28;20481;-51
2022/07/03 10:47:44;;;;;;;4.33;1.80;;;26.90;99.90;;;;;;5089765;28;20446;-50
2022/07/03 10:50:12;;;;;;;2.40;2.17;;;26.90;99.90;;;;;;5089076;28;20466;-48
2022/07/03 10:52:40;;;;;;;2.97;2.37;;;27.00;99.90;;;;;;5090664;28;20447;-50
2022/07/03 10:55:08;;;;;;;2.63;2.43;;;27.10;99.90;;;;;;5092788;28;20439;-50
2022/07/03 10:57:35;;;;;;;2.40;2.20;;;27.10;99.90;;;;;;5092609;28;20520;-49
2022/07/03 11:00:17;;;;;;;3.17;2.67;;;27.10;99.90;;;;;;5092772;28;20581;-50
2022/07/03 11:02:48;;;;;;;2.47;2.27;;;27.10;99.90;;;;;;5092918;28;20443;-49
2022/07/03 11:05:37;;;;;;;2.37;2.17;;;27.10;99.90;;;;;;5092394;28;20566;-51
2022/07/03 11:08:15;;;;;;;2.90;2.17;;;27.10;99.90;;;;;;5092277;28;20808;-49
2022/07/03 11:11:54;;;;;;;2.67;2.47;;;27.10;99.90;;;;;;5091737;28;20879;-53
2022/07/03 11:13:31;;;;;;;2.27;2.07;;;27.00;99.90;;;;;;5092308;28;20929;-49
2022/07/03 11:15:58;;;;;;;3.13;2.50;;;27.00;99.90;;;;;;5092423;28;20530;-49
2022/07/03 11:18:31;;;;;;;2.23;2.03;;;27.10;99.90;;;;;;5092195;28;20535;-50
2022/07/03 11:21:26;;;;;;;3.17;2.50;;;27.10;99.90;;;;;;5088603;28;20456;-52
2022/07/03 11:24:25;;;;;;;2.70;2.50;;;27.20;99.90;;;;;;5091216;28;20535;-50
2022/07/03 11:27:24;;;;;;;2.73;2.50;;;27.30;99.90;;;;;;5091896;28;20436;-49
2022/07/03 11:29:54;;;;;;;2.20;2.00;;;27.30;99.90;;;;;;5078748;28;20479;-50
2022/07/03 11:32:49;;;;;;;2.50;2.30;;;27.30;99.90;;;;;;5091118;28;20522;-53
2022/07/03 11:36:01;;;;;;;2.10;1.90;;;27.40;99.90;;;;;;5091210;28;20444;-49
2022/07/03 11:38:30;;;;;;;3.30;2.00;;;27.50;99.90;;;;;;5075897;28;20538;-51
2022/07/03 11:41:00;;;;;;;2.23;1.90;;;27.60;99.90;;;;;;5091631;28;20489;-49
2022/07/03 11:43:27;;;;;;;2.60;2.40;;;27.60;99.90;;;;;;5092103;28;20427;-49
2022/07/03 11:45:55;;;;;;;2.80;2.50;;;27.60;99.90;;;;;;5091704;28;20514;-49
2022/07/03 11:48:25;;;;;;;2.10;1.87;;;27.70;99.90;;;;;;5091625;28;20443;-50
2022/07/03 11:50:53;;;;;;;2.77;1.90;;;27.60;99.90;;;;;;5091588;28;20459;-53
2022/07/03 11:53:22;;;;;;;3.40;2.00;;;27.60;99.90;;;;;;5091621;28;20978;-49
2022/07/03 11:55:52;;;;;;;2.70;2.50;;;27.50;99.90;;;;;;5091800;28;20463;-50
2022/07/03 11:58:19;;;;;;;2.80;2.30;;;27.50;99.90;;;;;;5091524;28;20493;-49
2022/07/03 12:00:47;;;;;;;2.60;2.00;;;27.60;99.90;;;;;;5091153;28;20910;-49
2022/07/03 12:03:21;;;;;;;3.90;2.30;;;27.60;99.90;;;;;;5091417;28;20450;-50
2022/07/03 12:05:56;;;;;;;2.30;1.77;;;27.70;99.10;;;;;;5091545;28;20914;-49
2022/07/03 12:08:31;;;;;;;2.33;1.90;;;27.70;99.60;;;;;;5091335;28;20474;-52
2022/07/03 12:11:02;;;;;;;2.73;2.40;;;27.70;99.90;;;;;;5091257;28;20458;-50
2022/07/03 12:13:31;;;;;;;2.07;1.87;;;27.70;99.50;;;;;;5091518;28;20526;-49
2022/07/03 12:16:05;;;;;;;2.87;2.60;;;27.70;99.50;;;;;;5091346;28;20526;-53
2022/07/03 12:18:46;;;;;;;2.23;1.87;;;28.00;99.90;;;;;;5091171;28;20478;-49
2022/07/03 12:21:13;;;;;;;2.57;2.00;;;28.00;99.00;;;;;;5090804;28;20495;-50
2022/07/03 12:23:48;;;;;;;3.27;2.17;;;28.20;99.90;;;;;;5090983;28;20443;-51
2022/07/03 12:26:29;;;;;;;2.57;2.37;;;28.20;97.30;;;;;;5091097;28;20907;-49
2022/07/03 12:28:56;;;;;;;4.20;2.00;;;28.30;98.50;;;;;;5091151;28;20439;-49
2022/07/03 12:31:24;;;;;;;2.67;2.17;;;28.20;99.90;;;;;;5090772;28;20891;-49
2022/07/03 12:33:51;;;;;;;2.00;1.70;;;28.20;96.30;;;;;;5090613;28;20980;-52
2022/07/03 12:36:18;;;;;;;2.10;1.90;;;28.30;98.50;;;;;;5091258;28;20467;-49
2022/07/03 12:38:49;;;;;;;2.83;2.00;;;28.20;98.10;;;;;;5090901;28;20478;-52
2022/07/03 12:41:17;;;;;;;3.10;2.10;;;28.20;96.70;;;;;;5090563;28;20506;-49
2022/07/03 12:43:47;;;;;;;2.80;2.10;;;28.40;98.90;;;;;;5090695;28;20482;-49
2022/07/03 12:46:21;;;;;;;3.10;1.90;;;28.40;96.70;;;;;;5091136;28;20967;-50
2022/07/03 12:48:49;;;;;;;2.40;2.20;;;28.30;96.40;;;;;;5090159;28;20446;-49
2022/07/03 12:51:17;;;;;;;2.00;1.80;;;28.40;95.90;;;;;;5090627;28;20468;-49
2022/07/03 12:53:44;;;;;;;5.10;2.27;;;28.40;97.60;;;;;;5090486;28;21003;-49
2022/07/03 12:56:12;;;;;;;2.50;2.10;;;28.40;96.00;;;;;;5090544;28;20518;-50
2022/07/03 13:01:28;;;;;;;1.90;1.70;;;28.50;94.00;;;;;;5090497;28;20450;-48
2022/07/03 13:03:55;;;;;;;2.33;1.97;;;28.60;97.50;;;;;;5090632;28;20496;-52
2022/07/03 13:06:23;;;;;;;2.57;2.37;;;28.50;96.10;;;;;;5090361;28;20475;-49
2022/07/03 13:08:52;;;;;;;3.60;2.57;;;28.40;96.00;;;;;;5088492;28;20450;-50
2022/07/03 13:11:27;;;;;;;2.50;2.30;;;28.50;95.50;;;;;;5089921;28;20905;-51
2022/07/03 13:14:04;;;;;;;2.97;2.30;;;28.60;93.40;;;;;;5088921;28;20443;-48